Time;durP1;ratioP1;P1;durP2;ratioP2;P2;SDS_P1;SDS_P2;PMS_P1;PMS_P2;Temp;Humidity;BMP_temperature;BMP_pressure;BME280_temperature;BME280_humidity;BME280_pressure;Samples;Min_cycle;Max_cycle;Signal;HPM_P1;HPM_P2
2022/08/01 00:01:56;;;;;;;10.20;5.72;;;22.30;99.90;;;;;;4949917;28;20031;-86
2022/08/01 00:04:22;;;;;;;10.45;5.88;;;22.30;99.90;;;;;;4962463;28;20630;-86
2022/08/01 00:06:48;;;;;;;8.95;5.82;;;22.30;99.90;;;;;;4952334;28;20046;-86
2022/08/01 00:09:14;;;;;;;11.05;5.97;;;22.30;99.90;;;;;;4959847;28;20361;-86
2022/08/01 00:11:41;;;;;;;10.45;6.25;;;22.30;99.90;;;;;;4960341;28;20031;-87
2022/08/01 00:14:09;;;;;;;9.88;6.50;;;22.30;99.90;;;;;;4954380;29;20031;-86
2022/08/01 00:16:35;;;;;;;9.82;6.35;;;22.30;99.90;;;;;;4950236;28;20031;-87
2022/08/01 00:19:01;;;;;;;12.48;6.78;;;22.30;99.90;;;;;;4939601;29;20023;-86
2022/08/01 00:21:26;;;;;;;8.63;6.03;;;22.30;99.90;;;;;;4939375;28;20435;-87
2022/08/01 00:23:52;;;;;;;9.75;6.05;;;22.30;99.90;;;;;;4941113;29;20039;-87
2022/08/01 00:26:18;;;;;;;8.60;6.55;;;22.30;99.90;;;;;;4960345;28;20495;-87
2022/08/01 00:28:43;;;;;;;9.05;6.30;;;22.30;99.90;;;;;;4946150;29;20019;-87
2022/08/01 00:31:09;;;;;;;9.20;6.28;;;22.30;99.90;;;;;;4973034;28;20027;-87
2022/08/01 00:33:35;;;;;;;10.75;6.20;;;22.30;99.90;;;;;;4973055;28;20026;-87
2022/08/01 00:36:00;;;;;;;9.68;6.15;;;22.20;99.90;;;;;;4984717;28;20051;-87
2022/08/01 00:38:26;;;;;;;10.23;7.28;;;22.30;99.90;;;;;;4973557;28;20059;-87
2022/08/01 00:40:52;;;;;;;10.00;7.68;;;22.20;99.90;;;;;;4946166;29;20046;-87
2022/08/01 00:43:17;;;;;;;11.70;8.73;;;22.20;99.90;;;;;;4962621;28;20027;-87
2022/08/01 00:45:43;;;;;;;11.38;8.82;;;22.20;99.90;;;;;;4936004;28;21092;-88
2022/08/01 00:48:09;;;;;;;11.40;8.65;;;22.20;99.90;;;;;;4971513;28;20027;-87
2022/08/01 00:50:35;;;;;;;14.55;9.40;;;22.20;99.90;;;;;;4959479;28;20022;-86
2022/08/01 00:53:02;;;;;;;12.10;9.65;;;22.20;99.90;;;;;;4967444;28;20038;-87
2022/08/01 00:55:28;;;;;;;12.07;9.65;;;22.10;99.90;;;;;;4957257;28;20034;-87
2022/08/01 00:57:55;;;;;;;11.48;9.02;;;22.10;99.90;;;;;;4937095;29;20088;-87
2022/08/01 01:00:21;;;;;;;10.38;9.05;;;22.10;99.90;;;;;;4955708;28;20413;-86
2022/08/01 01:02:47;;;;;;;11.70;9.00;;;22.10;99.90;;;;;;4983123;28;20015;-87
2022/08/01 01:05:13;;;;;;;13.93;9.95;;;22.10;99.90;;;;;;4972810;28;20101;-87
2022/08/01 01:08:01;;;;;;;11.18;9.63;;;22.10;99.90;;;;;;4957744;28;20097;-87
2022/08/01 01:10:39;;;;;;;11.90;10.05;;;22.10;99.90;;;;;;4966584;28;20026;-87
2022/08/01 01:13:10;;;;;;;12.90;10.43;;;22.10;99.90;;;;;;4954124;28;20074;-87
2022/08/01 01:15:47;;;;;;;11.60;9.57;;;22.00;99.90;;;;;;4968017;28;20030;-87
2022/08/01 01:18:17;;;;;;;10.65;8.88;;;22.00;99.90;;;;;;4953187;28;20019;-87
2022/08/01 01:20:47;;;;;;;12.80;10.57;;;22.00;99.90;;;;;;4961664;28;20034;-86
2022/08/01 01:23:51;;;;;;;13.40;10.70;;;22.00;99.90;;;;;;4971006;28;20055;-87
2022/08/01 01:26:49;;;;;;;12.20;9.95;;;21.90;99.90;;;;;;4961345;28;20032;-87
2022/08/01 01:29:25;;;;;;;12.15;10.00;;;21.90;99.90;;;;;;4976391;28;20029;-87
2022/08/01 01:32:18;;;;;;;13.68;10.00;;;21.90;99.90;;;;;;4972999;28;20023;-87
2022/08/01 01:34:47;;;;;;;11.65;9.32;;;21.90;99.90;;;;;;4973475;28;20034;-87
2022/08/01 01:37:18;;;;;;;12.68;9.55;;;21.90;99.90;;;;;;4967430;28;20197;-87
2022/08/01 01:39:47;;;;;;;10.07;7.90;;;21.90;99.90;;;;;;4972210;28;20023;-87
2022/08/01 01:42:14;;;;;;;11.25;8.73;;;21.90;99.90;;;;;;4960284;28;20030;-87
2022/08/01 01:44:43;;;;;;;11.23;8.80;;;21.80;99.90;;;;;;4962024;28;20039;-87
2022/08/01 01:47:09;;;;;;;12.82;9.07;;;21.90;99.90;;;;;;4952499;28;20113;-87
2022/08/01 01:49:35;;;;;;;13.18;8.40;;;21.80;99.90;;;;;;4972610;28;20449;-87
2022/08/01 01:52:03;;;;;;;11.82;8.02;;;21.80;99.90;;;;;;4970189;28;20030;-87
2022/08/01 01:54:33;;;;;;;10.15;7.65;;;21.80;99.90;;;;;;4973460;28;20007;-87
2022/08/01 01:57:01;;;;;;;9.63;6.72;;;21.80;99.90;;;;;;4955480;28;20503;-86
2022/08/01 01:59:31;;;;;;;11.40;7.50;;;21.80;99.90;;;;;;4971054;28;20085;-86
2022/08/01 02:02:02;;;;;;;9.63;6.90;;;21.70;99.90;;;;;;4956424;28;20441;-87
2022/08/01 02:04:30;;;;;;;11.73;7.20;;;21.70;99.90;;;;;;4965416;28;20029;-86
2022/08/01 02:07:01;;;;;;;10.55;6.90;;;21.70;99.90;;;;;;4985820;28;20085;-86
2022/08/01 02:09:28;;;;;;;10.00;6.78;;;21.70;99.90;;;;;;4988991;28;20470;-86
2022/08/01 02:11:55;;;;;;;11.55;7.18;;;21.60;99.90;;;;;;4946305;28;20022;-86
2022/08/01 02:14:23;;;;;;;10.55;7.05;;;21.70;99.90;;;;;;4970151;28;20030;-87
2022/08/01 02:16:50;;;;;;;11.00;7.38;;;21.60;99.90;;;;;;4965406;28;20386;-86
2022/08/01 02:19:19;;;;;;;11.32;7.50;;;21.60;99.90;;;;;;4959100;28;20054;-87
2022/08/01 02:22:13;;;;;;;10.65;6.80;;;21.60;99.90;;;;;;4987965;28;20030;-87
2022/08/01 02:24:51;;;;;;;13.23;8.05;;;21.70;99.90;;;;;;4956491;28;20043;-87
2022/08/01 02:28:00;;;;;;;11.70;7.55;;;21.60;99.90;;;;;;4977273;28;20031;-87
2022/08/01 02:30:33;;;;;;;13.43;7.55;;;21.60;99.90;;;;;;4955342;28;21392;-88
2022/08/01 02:33:27;;;;;;;10.73;7.10;;;21.60;99.90;;;;;;4960661;28;20176;-87
2022/08/01 02:35:57;;;;;;;12.43;7.18;;;21.60;99.90;;;;;;4947654;28;20038;-88
2022/08/01 02:38:26;;;;;;;12.55;7.60;;;21.60;99.90;;;;;;4956411;28;20034;-87
2022/08/01 02:40:54;;;;;;;13.95;7.43;;;21.60;99.90;;;;;;4989822;28;20026;-87
2022/08/01 02:43:23;;;;;;;10.30;6.00;;;21.60;99.90;;;;;;4957127;28;20336;-88
2022/08/01 02:45:56;;;;;;;10.23;6.07;;;21.60;99.90;;;;;;4992071;28;20035;-87
2022/08/01 02:48:25;;;;;;;9.88;5.68;;;21.60;99.90;;;;;;4972048;28;20109;-87
2022/08/01 02:50:54;;;;;;;13.00;6.20;;;21.60;99.90;;;;;;4954893;28;20043;-84
2022/08/01 02:53:23;;;;;;;10.38;6.13;;;21.60;99.90;;;;;;4976425;28;20014;-84
2022/08/01 02:55:50;;;;;;;10.63;5.72;;;21.60;99.90;;;;;;4967995;28;20122;-84
2022/08/01 02:58:18;;;;;;;10.20;5.97;;;21.60;99.90;;;;;;4988066;28;20122;-84
2022/08/01 03:00:45;;;;;;;10.00;5.93;;;21.50;99.90;;;;;;4958122;28;20029;-84
2022/08/01 03:03:13;;;;;;;11.88;6.03;;;21.50;99.90;;;;;;4972630;28;20026;-84
2022/08/01 03:05:40;;;;;;;10.20;5.60;;;21.60;99.90;;;;;;4948488;28;20023;-84
2022/08/01 03:08:08;;;;;;;9.07;5.72;;;21.60;99.90;;;;;;4975866;28;20070;-84
2022/08/01 03:10:36;;;;;;;9.43;5.53;;;21.60;99.90;;;;;;4955939;28;20077;-84
2022/08/01 03:13:04;;;;;;;8.95;5.50;;;21.50;99.90;;;;;;4964115;28;20023;-85
2022/08/01 03:15:33;;;;;;;8.90;5.80;;;21.50;99.90;;;;;;4954697;28;20102;-84
2022/08/01 03:18:01;;;;;;;8.73;5.82;;;21.50;99.90;;;;;;4983473;28;20022;-84
2022/08/01 03:20:29;;;;;;;8.73;5.40;;;21.50;99.90;;;;;;4955174;28;20027;-84
2022/08/01 03:22:58;;;;;;;8.57;5.63;;;21.50;99.90;;;;;;4954202;28;20542;-84
2022/08/01 03:25:25;;;;;;;8.77;5.55;;;21.50;99.90;;;;;;4968276;28;20019;-84
2022/08/01 03:28:01;;;;;;;9.68;5.22;;;21.50;99.90;;;;;;4947954;28;20011;-84
2022/08/01 03:30:29;;;;;;;8.35;5.05;;;21.50;99.90;;;;;;4957170;28;20463;-84
2022/08/01 03:32:55;;;;;;;9.82;4.97;;;21.50;99.90;;;;;;4953371;28;20027;-84
2022/08/01 03:35:23;;;;;;;8.65;5.13;;;21.50;99.90;;;;;;4962200;28;20046;-84
2022/08/01 03:37:52;;;;;;;9.50;5.45;;;21.50;99.90;;;;;;4977922;28;20039;-83
2022/08/01 03:40:30;;;;;;;8.85;5.45;;;21.50;99.90;;;;;;4986225;28;20097;-84
2022/08/01 03:43:03;;;;;;;9.38;6.03;;;21.40;99.90;;;;;;4985334;28;22684;-84
2022/08/01 03:45:38;;;;;;;8.65;5.80;;;21.40;99.90;;;;;;4956353;28;20027;-85
2022/08/01 03:48:13;;;;;;;7.63;4.82;;;21.40;99.90;;;;;;4951587;29;20086;-83
2022/08/01 03:50:42;;;;;;;8.68;5.45;;;21.40;99.90;;;;;;4970297;28;20492;-84
2022/08/01 03:53:10;;;;;;;10.48;5.43;;;21.40;99.90;;;;;;4949355;28;20019;-84
2022/08/01 03:55:39;;;;;;;7.43;4.88;;;21.40;99.90;;;;;;4957402;28;20410;-84
2022/08/01 03:58:07;;;;;;;7.45;5.05;;;21.40;99.90;;;;;;4985468;28;20015;-83
2022/08/01 04:00:35;;;;;;;10.07;5.53;;;21.40;99.90;;;;;;4958147;28;20400;-84
2022/08/01 04:03:01;;;;;;;7.78;4.95;;;21.40;99.90;;;;;;4954598;28;20059;-84
2022/08/01 04:05:27;;;;;;;7.57;5.18;;;21.30;99.90;;;;;;4967903;28;20038;-89
2022/08/01 04:07:55;;;;;;;8.38;5.30;;;21.30;99.90;;;;;;4957613;28;20042;-89
2022/08/01 04:10:24;;;;;;;8.23;5.28;;;21.30;99.90;;;;;;4945724;28;20038;-89
2022/08/01 04:12:50;;;;;;;8.60;5.53;;;21.30;99.90;;;;;;4955450;28;20030;-89
2022/08/01 04:15:16;;;;;;;7.65;5.18;;;21.30;99.90;;;;;;4962639;28;20023;-89
2022/08/01 04:17:42;;;;;;;10.60;5.75;;;21.30;99.90;;;;;;4971477;28;20137;-89
2022/08/01 04:20:08;;;;;;;8.95;5.75;;;21.30;99.90;;;;;;4942049;29;20055;-89
2022/08/01 04:22:35;;;;;;;8.43;5.70;;;21.20;99.90;;;;;;4947537;28;20034;-89
2022/08/01 04:25:04;;;;;;;8.55;6.10;;;21.30;99.90;;;;;;4960159;28;20499;-89
2022/08/01 04:27:35;;;;;;;7.93;5.00;;;21.30;99.90;;;;;;4965544;28;20018;-89
2022/08/01 04:30:01;;;;;;;;;;;21.30;99.90;;;;;;4959692;28;20047;-89
2022/08/01 04:32:33;;;;;;;6.10;4.57;;;21.20;99.90;;;;;;4975856;28;19914;-89
2022/08/01 04:35:02;;;;;;;7.15;5.03;;;21.20;99.90;;;;;;4957404;28;20047;-88
2022/08/01 04:37:29;;;;;;;6.00;4.20;;;21.20;99.90;;;;;;4966444;28;20465;-89
2022/08/01 04:39:57;;;;;;;8.48;4.90;;;21.20;99.90;;;;;;4943045;28;20739;-89
2022/08/01 04:42:23;;;;;;;8.40;4.72;;;21.20;99.90;;;;;;4980240;28;20034;-89
2022/08/01 04:44:49;;;;;;;6.82;5.00;;;21.20;99.90;;;;;;4987927;28;20383;-89
2022/08/01 04:47:15;;;;;;;7.10;4.50;;;21.20;99.90;;;;;;4987253;28;20034;-89
2022/08/01 04:49:42;;;;;;;7.57;4.70;;;21.20;99.90;;;;;;4956961;28;20031;-89
2022/08/01 04:52:08;;;;;;;7.70;4.53;;;21.20;99.90;;;;;;4931877;28;20114;-89
2022/08/01 04:54:37;;;;;;;9.05;5.22;;;21.20;99.90;;;;;;4961480;28;20078;-89
2022/08/01 04:57:06;;;;;;;7.20;5.05;;;21.30;99.90;;;;;;4981427;28;20034;-88
2022/08/01 04:59:41;;;;;;;6.35;4.47;;;21.20;99.90;;;;;;4974108;28;20051;-89
2022/08/01 05:02:08;;;;;;;9.02;4.93;;;21.20;99.90;;;;;;4985697;28;20047;-88
2022/08/01 05:04:34;;;;;;;7.28;4.60;;;21.20;99.90;;;;;;4979231;28;20027;-89
2022/08/01 05:06:59;;;;;;;6.60;4.28;;;21.20;99.90;;;;;;4965752;28;20035;-89
2022/08/01 05:09:26;;;;;;;6.85;4.90;;;21.20;99.90;;;;;;4944170;28;20034;-89
2022/08/01 05:11:52;;;;;;;7.55;5.32;;;21.20;99.90;;;;;;4975729;28;20030;-89
2022/08/01 05:14:17;;;;;;;7.50;5.00;;;21.20;99.90;;;;;;4988679;28;20022;-89
2022/08/01 05:16:45;;;;;;;7.20;5.07;;;21.30;99.90;;;;;;4944440;28;20030;-89
2022/08/01 05:19:11;;;;;;;8.43;5.40;;;21.20;99.90;;;;;;4961142;28;20546;-89
2022/08/01 05:21:37;;;;;;;7.43;5.10;;;21.20;99.90;;;;;;4966679;28;20027;-89
2022/08/01 05:24:04;;;;;;;6.88;4.95;;;21.20;99.90;;;;;;4988652;28;20477;-88
2022/08/01 05:26:30;;;;;;;6.82;4.65;;;21.20;99.90;;;;;;4959754;28;20032;-88
2022/08/01 05:28:56;;;;;;;7.80;5.00;;;21.20;99.90;;;;;;4960953;28;20029;-88
2022/08/01 05:31:21;;;;;;;7.93;5.10;;;21.20;99.90;;;;;;4942854;28;20145;-89
2022/08/01 05:33:47;;;;;;;8.15;4.85;;;21.20;99.90;;;;;;4950681;28;20027;-88
2022/08/01 05:36:13;;;;;;;7.18;4.63;;;21.20;99.90;;;;;;4943713;28;20078;-88
2022/08/01 05:38:38;;;;;;;6.40;4.70;;;21.20;99.90;;;;;;4959269;28;20093;-89
2022/08/01 05:41:04;;;;;;;8.13;4.50;;;21.20;99.90;;;;;;4953623;28;20120;-89
2022/08/01 05:43:30;;;;;;;7.20;4.38;;;21.20;99.90;;;;;;4963636;28;20038;-89
2022/08/01 05:45:58;;;;;;;5.75;4.22;;;21.20;99.90;;;;;;4945510;28;20377;-90
2022/08/01 05:48:24;;;;;;;7.20;4.85;;;21.20;99.90;;;;;;4962752;28;20019;-91
2022/08/01 05:50:50;;;;;;;7.22;4.15;;;21.20;99.90;;;;;;4945227;28;20015;-90
2022/08/01 05:53:16;;;;;;;5.63;3.67;;;21.20;99.90;;;;;;4967822;28;20373;-91
2022/08/01 05:55:42;;;;;;;6.68;4.10;;;21.20;99.90;;;;;;4938208;28;20031;-89
2022/08/01 05:58:08;;;;;;;6.28;3.90;;;21.20;99.90;;;;;;4958281;28;20039;-90
2022/08/01 06:00:33;;;;;;;4.95;3.65;;;21.20;99.90;;;;;;4957860;28;20041;-89
2022/08/01 06:02:59;;;;;;;5.90;3.67;;;21.20;99.90;;;;;;4974805;28;20389;-89
2022/08/01 06:05:25;;;;;;;6.38;4.28;;;21.20;99.90;;;;;;4965885;28;20097;-89
2022/08/01 06:07:51;;;;;;;5.93;3.78;;;21.20;99.90;;;;;;4968580;28;20077;-89
2022/08/01 06:10:17;;;;;;;6.63;3.75;;;21.20;99.90;;;;;;4974942;28;20110;-89
2022/08/01 06:12:43;;;;;;;6.63;3.80;;;21.20;99.90;;;;;;4982319;28;20055;-89
2022/08/01 06:15:09;;;;;;;5.28;3.70;;;21.20;99.90;;;;;;4973946;28;20105;-89
2022/08/01 06:17:35;;;;;;;4.80;2.95;;;21.20;99.90;;;;;;4987943;28;20038;-90
2022/08/01 06:20:01;;;;;;;3.85;2.60;;;21.20;99.90;;;;;;4961497;28;20023;-87
2022/08/01 06:22:26;;;;;;;3.00;1.80;;;21.20;99.90;;;;;;4942005;28;20480;-87
2022/08/01 06:24:52;;;;;;;1.90;1.60;;;21.20;99.90;;;;;;4956923;28;20119;-87
2022/08/01 06:27:18;;;;;;;1.92;1.63;;;21.30;99.90;;;;;;4963394;28;20046;-87
2022/08/01 06:29:44;;;;;;;2.10;1.67;;;21.30;99.90;;;;;;4969233;28;20400;-87
2022/08/01 06:32:09;;;;;;;3.33;1.60;;;21.30;99.90;;;;;;4948613;28;20542;-87
2022/08/01 06:34:35;;;;;;;1.77;1.40;;;21.30;99.90;;;;;;4939681;28;20118;-87
2022/08/01 06:37:01;;;;;;;3.03;1.48;;;21.30;99.90;;;;;;5003821;23;20040;-86
2022/08/01 06:39:27;;;;;;;3.17;1.58;;;21.30;99.90;;;;;;5030986;28;20104;-83
2022/08/01 06:41:52;;;;;;;1.58;1.30;;;21.30;99.90;;;;;;5031214;28;20025;-86
2022/08/01 06:44:19;;;;;;;2.10;1.27;;;21.30;99.90;;;;;;5032868;28;20024;-86
2022/08/01 06:46:44;;;;;;;2.03;1.40;;;21.30;99.90;;;;;;5033152;28;20041;-86
2022/08/01 06:49:10;;;;;;;1.48;1.20;;;21.30;99.90;;;;;;5032958;28;20074;-86
2022/08/01 06:51:36;;;;;;;3.08;1.10;;;21.40;99.90;;;;;;5032875;28;20024;-86
2022/08/01 06:54:02;;;;;;;1.58;1.15;;;21.40;99.90;;;;;;5031483;28;20020;-86
2022/08/01 06:56:28;;;;;;;1.65;1.13;;;21.40;99.90;;;;;;5015089;28;20021;-86
2022/08/01 06:58:56;;;;;;;1.08;0.98;;;21.40;99.90;;;;;;5023857;28;20053;-86
2022/08/01 07:01:21;;;;;;;1.17;0.95;;;21.40;99.90;;;;;;5031791;28;20444;-86
2022/08/01 07:03:47;;;;;;;1.30;1.20;;;21.40;99.90;;;;;;5016479;28;20151;-86
2022/08/01 07:06:14;;;;;;;1.23;1.13;;;21.40;99.90;;;;;;5032965;28;20063;-87
2022/08/01 07:08:40;;;;;;;2.20;1.10;;;21.40;99.90;;;;;;5016868;28;20013;-87
2022/08/01 07:11:06;;;;;;;3.33;1.30;;;21.40;99.90;;;;;;5024991;28;20017;-86
2022/08/01 07:13:32;;;;;;;1.50;1.10;;;21.40;99.90;;;;;;5009496;28;20022;-86
2022/08/01 07:15:58;;;;;;;1.92;0.88;;;21.40;99.90;;;;;;5038450;28;20029;-86
2022/08/01 07:18:23;;;;;;;2.70;1.10;;;21.40;99.90;;;;;;5027034;28;20041;-86
2022/08/01 07:20:51;;;;;;;1.13;0.80;;;21.40;99.90;;;;;;5015827;28;20032;-85
2022/08/01 07:23:17;;;;;;;1.77;0.95;;;21.40;99.90;;;;;;5028640;28;20098;-86
2022/08/01 07:25:42;;;;;;;1.48;1.00;;;21.40;99.90;;;;;;5031743;28;20052;-86
2022/08/01 07:28:09;;;;;;;1.65;0.93;;;21.40;99.90;;;;;;5015118;28;20481;-86
2022/08/01 07:30:35;;;;;;;1.77;1.20;;;21.40;99.90;;;;;;5057377;28;20041;-86
2022/08/01 07:33:01;;;;;;;1.67;1.00;;;21.40;99.90;;;;;;5025611;28;20119;-86
2022/08/01 07:35:27;;;;;;;1.90;1.13;;;21.50;99.90;;;;;;5024009;28;20017;-86
2022/08/01 07:37:55;;;;;;;2.47;1.13;;;21.50;99.90;;;;;;5042361;28;20049;-86
2022/08/01 07:40:21;;;;;;;2.15;1.20;;;21.50;99.90;;;;;;5014476;28;20021;-86
2022/08/01 07:42:47;;;;;;;1.52;1.30;;;21.50;99.90;;;;;;5017609;28;20022;-86
2022/08/01 07:45:14;;;;;;;1.52;1.13;;;21.50;99.90;;;;;;5022499;28;20027;-86
2022/08/01 07:47:41;;;;;;;2.15;1.20;;;21.50;99.90;;;;;;5026131;28;20439;-85
2022/08/01 07:50:07;;;;;;;2.13;1.17;;;21.50;99.90;;;;;;5026384;28;20018;-82
2022/08/01 07:52:33;;;;;;;2.30;1.05;;;21.50;99.90;;;;;;5034851;28;20494;-83
2022/08/01 07:54:59;;;;;;;1.95;1.10;;;21.50;99.90;;;;;;5035490;28;20028;-83
2022/08/01 07:57:25;;;;;;;1.63;1.15;;;21.50;99.90;;;;;;5034864;28;20032;-83
2022/08/01 07:59:51;;;;;;;2.50;1.05;;;21.50;99.90;;;;;;5020091;28;20513;-83
2022/08/01 08:02:17;;;;;;;2.47;1.10;;;21.60;99.90;;;;;;5034293;28;20043;-86
2022/08/01 08:04:43;;;;;;;1.85;1.20;;;21.60;99.90;;;;;;5029406;28;20363;-86
2022/08/01 08:07:09;;;;;;;2.78;1.38;;;21.50;99.90;;;;;;5021195;28;20032;-86
2022/08/01 08:09:34;;;;;;;2.50;1.50;;;21.60;99.90;;;;;;5030479;28;20474;-86
2022/08/01 08:12:00;;;;;;;2.00;1.20;;;21.60;99.90;;;;;;5017740;28;20060;-86
2022/08/01 08:14:26;;;;;;;3.42;1.65;;;21.60;99.90;;;;;;5017772;28;20032;-85
2022/08/01 08:16:52;;;;;;;3.03;1.40;;;21.50;99.90;;;;;;5019987;28;20493;-86
2022/08/01 08:19:18;;;;;;;1.73;1.33;;;21.60;99.90;;;;;;5030737;28;20032;-83
2022/08/01 08:21:44;;;;;;;1.30;1.20;;;21.60;99.90;;;;;;5017013;28;20029;-87
2022/08/01 08:24:19;;;;;;;2.63;1.42;;;21.60;99.90;;;;;;5010605;28;20175;-87
2022/08/01 08:26:46;;;;;;;2.05;1.45;;;21.60;99.90;;;;;;5048128;28;20466;-87
2022/08/01 08:29:12;;;;;;;3.25;1.40;;;21.70;99.90;;;;;;5043881;28;20071;-87
2022/08/01 08:31:38;;;;;;;3.25;1.40;;;21.70;99.90;;;;;;5020411;28;20026;-87
2022/08/01 08:34:07;;;;;;;2.13;1.40;;;21.70;99.90;;;;;;5046307;28;20017;-87
2022/08/01 08:36:33;;;;;;;2.63;1.40;;;21.70;99.90;;;;;;5043727;28;20051;-87
2022/08/01 08:39:02;;;;;;;2.15;1.40;;;21.70;99.90;;;;;;5036312;28;20513;-87
2022/08/01 08:41:33;;;;;;;3.13;1.30;;;21.70;99.90;;;;;;5033937;28;20029;-87
2022/08/01 08:44:01;;;;;;;2.72;1.55;;;21.70;99.90;;;;;;5029057;28;20029;-87
2022/08/01 08:46:28;;;;;;;2.80;1.42;;;21.70;99.90;;;;;;5034133;28;20036;-87
2022/08/01 08:48:55;;;;;;;1.88;1.40;;;21.70;99.90;;;;;;5032098;28;20055;-87
2022/08/01 08:51:23;;;;;;;4.50;1.75;;;21.70;99.90;;;;;;5030928;28;20109;-86
2022/08/01 08:53:51;;;;;;;3.42;1.48;;;21.70;99.90;;;;;;5032701;28;20045;-86
2022/08/01 08:56:18;;;;;;;3.60;1.70;;;21.70;99.90;;;;;;5048627;28;20470;-85
2022/08/01 08:58:45;;;;;;;4.03;1.40;;;21.80;99.90;;;;;;5017398;28;20025;-86
2022/08/01 09:01:12;;;;;;;2.08;1.25;;;21.80;99.90;;;;;;5033458;28;20028;-86
2022/08/01 09:03:39;;;;;;;2.35;1.20;;;21.80;99.90;;;;;;5012073;28;20100;-86
2022/08/01 09:06:05;;;;;;;2.33;1.33;;;21.80;99.90;;;;;;5028160;28;20033;-86
2022/08/01 09:08:32;;;;;;;2.15;1.33;;;21.80;99.90;;;;;;5032398;28;20024;-85
2022/08/01 09:10:57;;;;;;;1.80;1.20;;;21.80;99.90;;;;;;5032362;28;20048;-86
2022/08/01 09:13:24;;;;;;;1.73;1.27;;;21.80;99.90;;;;;;4998790;28;20467;-85
2022/08/01 09:15:56;;;;;;;1.98;1.30;;;21.80;99.90;;;;;;5020181;28;20020;-85
2022/08/01 09:18:44;;;;;;;2.53;1.30;;;21.80;99.90;;;;;;5040365;28;20033;-85
2022/08/01 09:21:19;;;;;;;4.13;1.40;;;21.90;99.90;;;;;;5032645;28;20017;-85
2022/08/01 09:23:51;;;;;;;2.40;1.15;;;21.90;99.90;;;;;;5027250;28;20029;-86
2022/08/01 09:26:20;;;;;;;3.65;1.17;;;21.90;99.90;;;;;;5027453;28;20022;-83
2022/08/01 09:28:47;;;;;;;2.67;1.42;;;21.90;99.90;;;;;;5047689;28;20020;-85
2022/08/01 09:31:19;;;;;;;2.65;1.20;;;21.90;99.90;;;;;;5000757;28;20375;-82
2022/08/01 09:33:53;;;;;;;1.90;1.30;;;21.90;99.90;;;;;;5031199;28;20127;-82
2022/08/01 09:36:21;;;;;;;3.55;1.50;;;21.90;99.90;;;;;;5044150;28;20024;-84
2022/08/01 09:38:48;;;;;;;3.80;1.50;;;21.90;99.90;;;;;;5033468;28;20029;-82
2022/08/01 09:41:14;;;;;;;1.52;1.10;;;21.90;99.90;;;;;;5046507;28;20021;-83
2022/08/01 09:43:39;;;;;;;2.42;0.98;;;21.80;99.90;;;;;;5030651;28;20033;-82
2022/08/01 09:46:13;;;;;;;4.28;1.48;;;21.80;99.90;;;;;;5027093;28;20110;-83
2022/08/01 09:48:54;;;;;;;2.17;1.40;;;21.80;99.90;;;;;;5036393;28;20025;-83
2022/08/01 09:51:34;;;;;;;4.30;1.70;;;21.80;99.90;;;;;;5035467;28;20017;-82
2022/08/01 09:54:01;;;;;;;5.55;1.92;;;21.70;99.90;;;;;;5048171;28;20104;-81
2022/08/01 09:56:39;;;;;;;4.35;1.90;;;21.70;99.90;;;;;;5041961;28;20077;-81
2022/08/01 09:59:05;;;;;;;6.05;2.85;;;21.70;99.90;;;;;;5045968;28;20021;-81
2022/08/01 10:01:50;;;;;;;5.35;2.10;;;21.70;99.90;;;;;;5049815;28;20021;-81
2022/08/01 10:04:18;;;;;;;5.00;2.33;;;21.70;99.90;;;;;;5043782;28;20059;-82
2022/08/01 10:06:49;;;;;;;4.70;2.47;;;21.70;99.90;;;;;;5045868;28;20108;-82
2022/08/01 10:09:15;;;;;;;4.82;2.60;;;21.60;99.90;;;;;;5030764;28;20040;-81
2022/08/01 10:11:42;;;;;;;5.45;2.50;;;21.60;99.90;;;;;;5041539;28;20017;-82
2022/08/01 10:14:08;;;;;;;5.88;2.85;;;21.60;99.90;;;;;;5040694;28;20025;-81
2022/08/01 10:16:36;;;;;;;6.78;2.63;;;21.60;99.90;;;;;;5028881;28;20025;-81
2022/08/01 10:19:06;;;;;;;7.10;2.95;;;21.60;99.90;;;;;;5031668;28;20048;-82
2022/08/01 10:21:33;;;;;;;5.43;3.03;;;21.60;99.90;;;;;;5029966;28;20025;-81
2022/08/01 10:24:01;;;;;;;6.00;3.05;;;21.50;99.90;;;;;;5033771;28;20271;-81
2022/08/01 10:26:29;;;;;;;6.18;3.00;;;21.50;99.90;;;;;;5034470;28;20021;-81
2022/08/01 10:28:55;;;;;;;6.20;2.92;;;21.50;99.90;;;;;;5033833;28;20029;-82
2022/08/01 10:31:21;;;;;;;9.35;3.70;;;21.50;99.90;;;;;;5030894;28;20029;-81
2022/08/01 10:33:48;;;;;;;7.43;3.67;;;21.50;99.90;;;;;;5032110;28;20021;-81
2022/08/01 10:36:14;;;;;;;8.23;3.60;;;21.50;99.90;;;;;;5013604;28;20072;-80
2022/08/01 10:38:40;;;;;;;8.70;3.75;;;21.50;99.90;;;;;;5029790;28;20057;-80
2022/08/01 10:41:06;;;;;;;7.07;3.90;;;21.50;99.90;;;;;;5031603;28;20048;-80
2022/08/01 10:43:31;;;;;;;7.93;4.03;;;21.60;99.90;;;;;;5015626;28;20470;-80
2022/08/01 10:45:58;;;;;;;8.02;3.67;;;21.60;99.90;;;;;;5046829;28;20029;-80
2022/08/01 10:48:50;;;;;;;13.43;3.72;;;21.60;99.90;;;;;;5032692;28;20112;-80
2022/08/01 10:51:17;;;;;;;11.88;3.90;;;21.60;99.90;;;;;;5045207;28;20052;-80
2022/08/01 10:53:48;;;;;;;7.72;3.70;;;21.70;99.90;;;;;;5038679;28;20034;-80
2022/08/01 10:56:13;;;;;;;;;;;21.70;99.90;;;;;;5044059;28;20033;-80
2022/08/01 10:58:43;;;;;;;8.70;3.60;;;21.70;99.90;;;;;;5028537;28;19905;-80
2022/08/01 11:01:31;;;;;;;9.27;4.40;;;21.80;99.90;;;;;;5032608;28;20024;-83
2022/08/01 11:04:00;;;;;;;8.88;3.72;;;21.80;99.90;;;;;;5025995;28;20028;-83
2022/08/01 11:06:42;;;;;;;9.13;3.70;;;21.80;99.90;;;;;;5039680;28;20033;-83
2022/08/01 11:09:11;;;;;;;8.38;3.53;;;21.80;99.90;;;;;;5032183;28;20028;-88
2022/08/01 11:11:57;;;;;;;6.88;3.67;;;21.80;99.90;;;;;;5031573;28;20112;-88
2022/08/01 11:14:22;;;;;;;8.52;3.38;;;21.80;99.90;;;;;;5043120;28;20021;-85
2022/08/01 11:16:48;;;;;;;6.28;3.00;;;21.90;99.90;;;;;;5015182;28;20032;-84
2022/08/01 11:19:14;;;;;;;7.95;2.90;;;21.90;99.90;;;;;;5047577;28;20025;-84
2022/08/01 11:21:52;;;;;;;6.85;2.75;;;21.90;99.90;;;;;;5025790;28;20128;-85
2022/08/01 11:24:45;;;;;;;9.88;2.70;;;21.90;99.90;;;;;;5031622;28;20382;-85
2022/08/01 11:27:22;;;;;;;6.50;2.97;;;21.90;99.90;;;;;;5033365;28;20044;-85
2022/08/01 11:30:09;;;;;;;8.57;3.00;;;21.90;99.90;;;;;;5054155;28;20415;-85
2022/08/01 11:32:56;;;;;;;8.90;3.08;;;21.90;99.90;;;;;;5035355;28;20485;-85
2022/08/01 11:35:26;;;;;;;8.60;3.45;;;21.90;99.90;;;;;;5034530;28;20078;-85
2022/08/01 11:37:56;;;;;;;5.90;2.90;;;21.90;99.90;;;;;;5035615;28;20049;-85
2022/08/01 11:40:28;;;;;;;8.07;2.65;;;21.90;99.90;;;;;;5033300;28;20200;-84
2022/08/01 11:43:16;;;;;;;10.20;3.05;;;21.90;99.90;;;;;;5034925;28;20040;-85
2022/08/01 11:45:56;;;;;;;7.32;2.80;;;21.90;99.90;;;;;;5034635;28;20025;-85
2022/08/01 11:48:24;;;;;;;7.50;2.88;;;21.90;99.90;;;;;;5034900;28;20026;-85
2022/08/01 11:50:51;;;;;;;15.40;3.38;;;21.90;99.90;;;;;;5031801;28;20105;-84
2022/08/01 11:53:19;;;;;;;7.75;2.65;;;21.90;99.90;;;;;;5018633;28;20021;-84
2022/08/01 11:55:50;;;;;;;6.90;2.67;;;22.00;99.90;;;;;;5029497;28;20041;-84
2022/08/01 11:58:20;;;;;;;9.45;2.75;;;22.00;99.90;;;;;;5017755;28;20025;-84
2022/08/01 12:00:54;;;;;;;7.07;3.13;;;22.00;99.90;;;;;;5031957;28;20370;-85
2022/08/01 12:03:32;;;;;;;7.35;2.75;;;22.00;99.90;;;;;;5025829;28;20021;-84
2022/08/01 12:05:58;;;;;;;7.95;2.80;;;22.00;99.90;;;;;;5033500;28;20040;-85
2022/08/01 12:08:29;;;;;;;9.75;3.83;;;22.00;99.90;;;;;;5031448;28;20049;-85
2022/08/01 12:10:55;;;;;;;10.25;2.97;;;22.00;99.90;;;;;;5032326;28;20021;-85
2022/08/01 12:13:21;;;;;;;11.30;2.60;;;22.00;99.90;;;;;;5021705;28;20462;-84
2022/08/01 12:15:50;;;;;;;8.48;2.90;;;22.00;99.90;;;;;;5034544;28;20175;-84
2022/08/01 12:18:17;;;;;;;6.97;2.53;;;22.00;99.90;;;;;;5035161;28;20061;-83
2022/08/01 12:20:46;;;;;;;8.70;2.92;;;22.00;99.90;;;;;;5052845;28;20082;-82
2022/08/01 12:23:16;;;;;;;8.57;2.88;;;22.00;99.90;;;;;;5043290;28;20458;-82
2022/08/01 12:25:48;;;;;;;6.38;2.50;;;22.00;99.90;;;;;;5052222;28;20024;-83
2022/08/01 12:28:13;;;;;;;8.18;2.53;;;22.10;99.90;;;;;;5035113;28;20101;-83
2022/08/01 12:30:40;;;;;;;6.40;2.50;;;22.00;99.90;;;;;;5027160;28;20041;-83
2022/08/01 12:33:08;;;;;;;7.03;2.67;;;22.10;99.90;;;;;;5033534;28;20475;-83
2022/08/01 12:35:40;;;;;;;9.20;2.80;;;22.10;99.90;;;;;;5050692;28;20414;-83
2022/08/01 12:38:13;;;;;;;6.85;2.58;;;22.10;99.90;;;;;;5018746;28;20069;-85
2022/08/01 12:40:42;;;;;;;8.93;3.13;;;22.20;99.90;;;;;;5027819;28;20370;-85
2022/08/01 12:43:09;;;;;;;8.13;2.70;;;22.20;99.90;;;;;;5038385;28;20508;-84
2022/08/01 12:45:36;;;;;;;6.28;2.83;;;22.20;99.90;;;;;;5018602;28;20026;-84
2022/08/01 12:48:08;;;;;;;6.45;2.63;;;22.20;99.90;;;;;;5036106;28;20048;-83
2022/08/01 12:50:36;;;;;;;6.47;2.45;;;22.30;99.90;;;;;;5021877;28;20032;-83
2022/08/01 12:53:02;;;;;;;7.30;2.40;;;22.30;99.90;;;;;;5021144;28;20568;-83
2022/08/01 12:55:28;;;;;;;8.70;2.33;;;22.30;99.90;;;;;;5034834;28;20471;-83